Time;durP1;ratioP1;P1;durP2;ratioP2;P2;SDS_P1;SDS_P2;PMS_P1;PMS_P2;Temp;Humidity;BMP_temperature;BMP_pressure;BME280_temperature;BME280_humidity;BME280_pressure;Samples;Min_cycle;Max_cycle;Signal;HPM_P1;HPM_P2
2021/07/13 00:00:12;;;;;;;13.85;12.32;;;33.10;42.30;;;;;;5032605;28;20178;-64
2021/07/13 00:02:38;;;;;;;12.48;11.30;;;33.10;42.40;;;;;;5014678;28;20120;-63
2021/07/13 00:05:09;;;;;;;13.05;11.77;;;33.10;42.50;;;;;;5013961;28;20041;-63
2021/07/13 00:07:35;;;;;;;12.73;11.40;;;33.10;42.50;;;;;;5037517;28;20041;-63
2021/07/13 00:10:01;;;;;;;12.40;11.20;;;33.10;42.50;;;;;;5017814;28;20060;-64
2021/07/13 00:12:27;;;;;;;13.60;12.30;;;33.10;42.50;;;;;;5051995;28;20108;-65
2021/07/13 00:14:53;;;;;;;12.40;11.20;;;33.10;42.60;;;;;;5052017;28;20079;-63
2021/07/13 00:17:19;;;;;;;12.80;11.57;;;33.10;42.60;;;;;;5018043;28;20029;-63
2021/07/13 00:19:45;;;;;;;12.77;11.52;;;33.00;42.60;;;;;;5051913;28;20052;-64
2021/07/13 00:22:11;;;;;;;12.30;11.20;;;33.10;42.60;;;;;;5017660;28;20024;-63
2021/07/13 00:24:37;;;;;;;13.15;11.95;;;33.10;42.70;;;;;;5042563;28;20037;-63
2021/07/13 00:27:03;;;;;;;12.57;11.38;;;33.10;42.70;;;;;;5014114;28;20097;-63
2021/07/13 00:29:29;;;;;;;12.82;11.63;;;33.10;42.70;;;;;;5014000;28;20028;-63
2021/07/13 00:31:55;;;;;;;12.07;10.90;;;33.10;42.80;;;;;;5031897;28;20029;-63
2021/07/13 00:34:21;;;;;;;12.48;11.27;;;33.10;42.80;;;;;;5031983;28;20465;-63
2021/07/13 00:36:47;;;;;;;12.43;10.90;;;33.00;42.70;;;;;;4997652;28;20028;-63
2021/07/13 00:39:13;;;;;;;12.30;11.15;;;33.10;42.80;;;;;;4997705;28;20028;-63
2021/07/13 00:41:40;;;;;;;12.73;11.48;;;33.00;42.70;;;;;;5032120;28;20025;-62
2021/07/13 00:44:06;;;;;;;12.82;11.57;;;33.00;42.80;;;;;;5031504;28;20034;-64
2021/07/13 00:46:44;;;;;;;12.35;11.25;;;33.00;42.80;;;;;;5031666;28;20022;-63
2021/07/13 00:49:12;;;;;;;12.52;11.35;;;33.00;42.80;;;;;;5031580;28;20057;-64
2021/07/13 00:51:38;;;;;;;12.55;11.18;;;33.00;42.80;;;;;;5031493;28;20480;-63
2021/07/13 00:54:05;;;;;;;11.98;10.88;;;33.00;42.90;;;;;;5031598;28;20475;-63
2021/07/13 00:56:31;;;;;;;12.70;11.55;;;33.00;42.90;;;;;;4997420;28;20159;-63
2021/07/13 00:58:57;;;;;;;12.23;11.02;;;33.00;42.90;;;;;;5013708;28;20065;-63
2021/07/13 01:01:23;;;;;;;12.57;11.43;;;33.00;42.90;;;;;;5031814;28;20025;-63
2021/07/13 01:03:49;;;;;;;12.40;11.20;;;32.90;42.90;;;;;;5031343;28;20094;-63
2021/07/13 01:06:20;;;;;;;12.50;11.30;;;33.00;43.00;;;;;;5051276;28;20100;-63
2021/07/13 01:09:26;;;;;;;11.85;10.73;;;32.90;42.90;;;;;;5033159;28;20063;-64
2021/07/13 01:12:06;;;;;;;11.82;10.68;;;32.90;42.90;;;;;;4950934;29;20546;-63
2021/07/13 01:14:46;;;;;;;12.05;10.93;;;32.90;43.00;;;;;;4950694;29;20047;-63
2021/07/13 01:17:15;;;;;;;12.10;10.90;;;32.90;43.00;;;;;;4950034;28;20450;-63
2021/07/13 01:20:02;;;;;;;11.13;10.13;;;32.90;43.00;;;;;;4944858;29;20042;-63
2021/07/13 01:22:35;;;;;;;11.52;10.43;;;32.90;43.00;;;;;;4931448;29;20035;-64
2021/07/13 01:25:12;;;;;;;10.80;9.90;;;32.90;43.10;;;;;;4915813;29;20048;-64
2021/07/13 01:27:47;;;;;;;11.60;10.60;;;32.90;43.10;;;;;;4915570;29;20039;-63
2021/07/13 01:30:20;;;;;;;11.05;9.93;;;32.90;43.10;;;;;;4931393;29;20168;-63
2021/07/13 01:32:50;;;;;;;11.88;10.68;;;32.90;43.20;;;;;;4931500;29;20171;-65
2021/07/13 01:35:22;;;;;;;11.32;10.15;;;32.90;43.20;;;;;;4899982;29;20063;-63
2021/07/13 01:37:53;;;;;;;12.10;10.23;;;32.90;43.20;;;;;;4915575;29;20039;-64
2021/07/13 01:40:22;;;;;;;11.23;10.23;;;32.80;43.10;;;;;;4931527;29;20118;-64
2021/07/13 01:42:48;;;;;;;10.13;9.15;;;32.90;43.30;;;;;;4931563;29;20094;-63
2021/07/13 01:45:15;;;;;;;10.98;9.98;;;32.90;43.20;;;;;;4944802;29;20046;-64
2021/07/13 01:47:42;;;;;;;11.45;10.43;;;32.90;43.30;;;;;;5015552;28;20037;-64
2021/07/13 01:50:10;;;;;;;11.27;10.13;;;32.80;43.20;;;;;;5050876;28;20115;-64
2021/07/13 01:52:38;;;;;;;11.20;10.07;;;32.80;43.30;;;;;;5050687;28;20037;-63
2021/07/13 01:55:06;;;;;;;11.73;10.52;;;32.80;43.30;;;;;;5033037;28;20033;-64
2021/07/13 01:57:33;;;;;;;12.57;11.35;;;32.80;43.30;;;;;;5050765;28;20028;-63
2021/07/13 02:00:07;;;;;;;11.70;10.57;;;32.80;43.30;;;;;;5050453;28;20017;-64
2021/07/13 02:02:39;;;;;;;12.43;10.68;;;32.80;43.40;;;;;;5050394;28;20578;-64
2021/07/13 02:05:07;;;;;;;11.93;10.70;;;32.80;43.30;;;;;;5032113;28;20029;-64
2021/07/13 02:07:39;;;;;;;11.45;10.25;;;32.80;43.80;;;;;;5032633;28;20475;-64
2021/07/13 02:10:07;;;;;;;11.05;10.00;;;32.80;43.40;;;;;;5050390;28;20055;-64
2021/07/13 02:12:34;;;;;;;11.32;10.23;;;32.80;43.40;;;;;;5032627;28;20398;-63
2021/07/13 02:15:01;;;;;;;10.82;9.80;;;32.80;43.40;;;;;;5050407;28;20035;-64
2021/07/13 02:17:31;;;;;;;11.20;10.20;;;32.70;43.40;;;;;;5032852;28;20017;-63
2021/07/13 02:20:03;;;;;;;11.77;10.65;;;32.80;43.40;;;;;;5050137;28;20116;-64
2021/07/13 02:22:29;;;;;;;11.00;10.00;;;32.70;43.40;;;;;;5050131;28;20017;-66
2021/07/13 02:24:55;;;;;;;11.45;10.35;;;32.70;43.30;;;;;;5050853;28;20045;-64
2021/07/13 02:27:22;;;;;;;10.25;9.18;;;32.70;43.40;;;;;;5031324;28;20477;-64
2021/07/13 02:29:56;;;;;;;10.27;9.27;;;32.70;43.50;;;;;;5035855;28;20049;-64
2021/07/13 02:32:25;;;;;;;11.73;10.63;;;32.70;43.50;;;;;;5036484;28;20479;-64
2021/07/13 02:34:54;;;;;;;10.77;9.80;;;32.70;43.50;;;;;;5054205;28;20028;-65
2021/07/13 02:37:22;;;;;;;11.35;10.23;;;32.70;43.50;;;;;;5053971;28;20108;-63
2021/07/13 02:39:49;;;;;;;10.30;9.40;;;32.70;43.50;;;;;;5053980;28;20582;-63
2021/07/13 02:42:17;;;;;;;10.68;9.57;;;32.70;43.50;;;;;;5052603;28;20037;-64
2021/07/13 02:44:45;;;;;;;10.07;9.10;;;32.70;43.50;;;;;;5054083;28;20033;-65
2021/07/13 02:47:14;;;;;;;10.50;9.50;;;32.70;43.50;;;;;;5040502;28;20026;-63
2021/07/13 02:49:46;;;;;;;10.13;9.23;;;32.70;43.50;;;;;;5034129;28;20024;-64
2021/07/13 02:52:22;;;;;;;9.98;9.10;;;32.70;43.50;;;;;;5034146;28;20115;-63
2021/07/13 02:55:01;;;;;;;10.50;9.55;;;32.60;43.50;;;;;;5033857;28;20022;-64
2021/07/13 02:57:28;;;;;;;10.07;9.18;;;32.70;43.50;;;;;;5016179;28;20030;-63
2021/07/13 02:59:56;;;;;;;10.13;9.13;;;32.60;43.40;;;;;;5015698;28;20072;-64
2021/07/13 03:02:22;;;;;;;9.70;8.80;;;32.70;43.50;;;;;;5033839;28;20033;-63
2021/07/13 03:04:50;;;;;;;9.73;8.70;;;32.60;43.50;;;;;;5032471;28;20037;-64
2021/07/13 03:07:19;;;;;;;10.82;9.82;;;32.60;43.60;;;;;;5032281;28;20033;-64
2021/07/13 03:09:46;;;;;;;9.90;8.90;;;32.60;43.60;;;;;;5032167;28;20029;-64
2021/07/13 03:12:13;;;;;;;10.45;9.55;;;32.60;44.20;;;;;;5046218;28;20504;-64
2021/07/13 03:14:42;;;;;;;10.10;9.15;;;32.60;43.60;;;;;;5053244;28;20459;-64
2021/07/13 03:17:09;;;;;;;9.35;8.52;;;32.60;43.60;;;;;;5052264;28;20033;-64
2021/07/13 03:19:36;;;;;;;9.63;8.82;;;32.60;43.70;;;;;;5053329;28;20108;-63
2021/07/13 03:22:04;;;;;;;10.63;9.63;;;32.60;43.70;;;;;;5052060;28;20033;-67
2021/07/13 03:24:31;;;;;;;10.02;8.85;;;32.60;43.70;;;;;;5052404;28;20032;-63
2021/07/13 03:26:59;;;;;;;9.27;8.27;;;32.50;43.70;;;;;;5053119;28;20021;-64
2021/07/13 03:29:26;;;;;;;9.20;8.45;;;32.50;43.70;;;;;;5052901;28;20020;-65
2021/07/13 03:31:53;;;;;;;10.07;9.07;;;32.50;43.70;;;;;;5035338;28;20106;-63
2021/07/13 03:34:20;;;;;;;9.35;8.55;;;32.50;43.70;;;;;;5035123;28;20514;-64
2021/07/13 03:36:48;;;;;;;9.77;8.95;;;32.50;43.70;;;;;;5051593;28;20078;-63
2021/07/13 03:39:15;;;;;;;9.65;8.85;;;32.50;43.70;;;;;;5034613;28;20476;-64
2021/07/13 03:41:42;;;;;;;9.20;8.40;;;32.50;43.80;;;;;;5052173;28;20079;-64
2021/07/13 03:44:08;;;;;;;9.30;8.40;;;32.50;43.80;;;;;;5052390;28;20029;-63
2021/07/13 03:46:36;;;;;;;9.30;8.45;;;32.50;43.80;;;;;;5034761;28;20127;-65
2021/07/13 03:49:04;;;;;;;8.93;8.13;;;32.50;43.80;;;;;;5018558;28;20029;-63
2021/07/13 03:51:44;;;;;;;10.43;9.52;;;32.50;43.80;;;;;;5018519;28;20112;-64
2021/07/13 03:54:11;;;;;;;9.70;8.75;;;32.50;43.90;;;;;;5034969;28;20079;-64
2021/07/13 03:56:39;;;;;;;8.95;8.25;;;32.50;43.80;;;;;;5034729;28;20120;-63
2021/07/13 03:59:06;;;;;;;11.07;9.43;;;32.50;43.90;;;;;;5034697;28;20033;-64
2021/07/13 04:01:32;;;;;;;8.85;8.05;;;32.50;43.90;;;;;;5035005;28;20372;-63
2021/07/13 04:03:58;;;;;;;9.43;8.52;;;32.50;43.90;;;;;;5032327;28;20113;-64
2021/07/13 04:06:24;;;;;;;9.88;8.98;;;32.40;43.80;;;;;;5034199;28;20543;-63
2021/07/13 04:08:50;;;;;;;9.70;8.77;;;32.40;43.80;;;;;;5034668;28;20074;-64
2021/07/13 04:11:17;;;;;;;9.27;8.50;;;32.50;43.90;;;;;;5008929;28;20029;-63
2021/07/13 04:13:43;;;;;;;10.50;9.23;;;32.40;43.90;;;;;;5034032;28;20033;-63
2021/07/13 04:16:09;;;;;;;8.13;7.38;;;32.40;43.90;;;;;;5018102;28;20536;-63
2021/07/13 04:18:36;;;;;;;8.75;7.95;;;32.40;43.90;;;;;;5034316;28;20063;-66
2021/07/13 04:21:02;;;;;;;9.68;8.82;;;32.40;43.90;;;;;;5032897;28;20379;-64
2021/07/13 04:23:28;;;;;;;9.40;8.50;;;32.40;43.90;;;;;;5033932;28;20043;-63
2021/07/13 04:25:54;;;;;;;9.05;8.23;;;32.40;43.90;;;;;;5052160;28;20035;-63
2021/07/13 04:28:20;;;;;;;8.77;7.93;;;32.30;43.90;;;;;;5049733;28;20017;-63
2021/07/13 04:30:46;;;;;;;8.57;7.80;;;32.40;43.90;;;;;;5025774;28;20072;-63
2021/07/13 04:33:12;;;;;;;7.82;7.13;;;32.30;43.90;;;;;;5050704;28;20029;-63
2021/07/13 04:35:39;;;;;;;8.15;7.35;;;32.30;43.90;;;;;;5050238;28;20449;-63
2021/07/13 04:38:05;;;;;;;8.80;8.10;;;32.30;43.90;;;;;;5050867;28;20064;-63
2021/07/13 04:40:32;;;;;;;8.63;7.82;;;32.30;43.90;;;;;;5049744;28;20028;-64
2021/07/13 04:42:58;;;;;;;8.27;7.57;;;32.30;43.90;;;;;;5051622;28;20441;-63
2021/07/13 04:45:24;;;;;;;7.82;7.22;;;32.30;43.90;;;;;;5051951;28;20051;-63
2021/07/13 04:47:50;;;;;;;7.97;7.18;;;32.30;44.00;;;;;;5051301;28;20029;-63
2021/07/13 04:50:16;;;;;;;8.10;7.40;;;32.30;43.90;;;;;;5049517;28;20124;-64
2021/07/13 04:52:42;;;;;;;7.55;6.90;;;32.30;43.90;;;;;;5050689;28;20530;-63
2021/07/13 04:55:09;;;;;;;8.07;7.38;;;32.30;43.90;;;;;;5038796;28;20056;-63
2021/07/13 04:57:35;;;;;;;8.82;8.07;;;32.30;43.90;;;;;;5047266;28;20018;-63
2021/07/13 05:00:01;;;;;;;8.70;7.90;;;32.30;43.90;;;;;;5038479;28;20036;-63
2021/07/13 05:02:27;;;;;;;8.68;7.80;;;32.20;43.80;;;;;;5051150;28;20498;-63
2021/07/13 05:04:53;;;;;;;7.63;6.93;;;32.30;43.90;;;;;;5051292;28;20488;-63
2021/07/13 05:07:19;;;;;;;7.57;6.97;;;32.30;43.90;;;;;;5047424;28;20027;-63
2021/07/13 05:09:45;;;;;;;7.88;7.28;;;32.30;43.90;;;;;;5050873;28;20025;-63
2021/07/13 05:12:11;;;;;;;8.32;7.53;;;32.20;43.80;;;;;;5051458;28;20021;-64
2021/07/13 05:14:37;;;;;;;8.00;7.30;;;32.20;43.80;;;;;;5049944;28;20525;-64
2021/07/13 05:17:04;;;;;;;8.13;7.32;;;32.20;43.80;;;;;;5049171;28;20412;-63
2021/07/13 05:19:32;;;;;;;8.57;7.85;;;32.20;43.80;;;;;;5043369;28;20112;-64
2021/07/13 05:22:01;;;;;;;7.22;6.55;;;32.20;43.80;;;;;;5031239;28;20392;-64
2021/07/13 05:24:28;;;;;;;7.63;6.93;;;32.20;43.80;;;;;;5045389;28;20045;-63
2021/07/13 05:26:55;;;;;;;7.95;7.25;;;32.20;43.80;;;;;;5049648;28;20017;-64
2021/07/13 05:29:21;;;;;;;6.95;6.35;;;32.10;43.80;;;;;;5050170;28;20025;-63
2021/07/13 05:31:47;;;;;;;8.15;7.43;;;32.10;43.80;;;;;;5032527;28;20096;-63
2021/07/13 05:34:13;;;;;;;7.22;6.63;;;32.10;43.80;;;;;;5051008;28;20059;-64
2021/07/13 05:36:39;;;;;;;7.50;6.88;;;32.10;43.80;;;;;;5033574;28;20078;-65
2021/07/13 05:39:08;;;;;;;7.70;7.00;;;32.10;43.80;;;;;;5050580;28;20039;-63
2021/07/13 05:41:34;;;;;;;7.15;6.55;;;32.10;43.80;;;;;;5049891;28;20479;-63
2021/07/13 05:44:00;;;;;;;8.20;7.50;;;32.10;43.80;;;;;;5014392;28;21578;-62
2021/07/13 05:46:26;;;;;;;7.72;7.03;;;32.10;43.80;;;;;;5039504;28;20040;-63
2021/07/13 05:48:52;;;;;;;7.70;7.10;;;32.10;43.80;;;;;;5050331;28;20041;-62
2021/07/13 05:51:19;;;;;;;7.22;6.63;;;32.00;43.80;;;;;;5016102;28;20021;-63
2021/07/13 05:53:45;;;;;;;9.35;5.13;;;32.10;43.80;;;;;;5049755;28;20029;-57
2021/07/13 05:56:11;;;;;;;10.05;5.85;;;32.00;39.90;;;;;;5050453;28;20028;-59
2021/07/13 05:58:38;;;;;;;11.93;4.28;;;31.90;39.50;;;;;;5051087;28;20467;-57
2021/07/13 06:01:06;;;;;;;7.60;3.67;;;31.90;38.10;;;;;;5050358;28;20059;-57
2021/07/13 06:03:32;;;;;;;7.82;4.68;;;31.80;37.10;;;;;;5050783;28;20518;-57
2021/07/13 06:05:59;;;;;;;5.07;2.80;;;31.70;36.20;;;;;;5048111;28;20033;-57
2021/07/13 06:08:25;;;;;;;7.20;2.70;;;31.60;35.50;;;;;;5052092;28;20095;-57
2021/07/13 06:10:51;;;;;;;5.93;2.53;;;31.40;35.10;;;;;;5017867;28;20087;-57
2021/07/13 06:13:18;;;;;;;5.07;2.13;;;31.40;34.90;;;;;;5053964;28;20033;-58
2021/07/13 06:15:45;;;;;;;5.07;2.33;;;31.30;34.70;;;;;;5052159;28;20040;-58
2021/07/13 06:18:15;;;;;;;7.45;2.38;;;31.20;33.80;;;;;;5051936;28;20053;-60
2021/07/13 06:20:41;;;;;;;9.33;2.23;;;31.10;34.40;;;;;;5053318;28;20021;-58
2021/07/13 06:23:07;;;;;;;9.18;1.98;;;31.10;34.00;;;;;;5053670;28;20048;-57
2021/07/13 06:25:33;;;;;;;4.68;1.85;;;31.00;33.40;;;;;;5043629;28;20119;-58
2021/07/13 06:27:59;;;;;;;12.15;1.92;;;31.00;32.80;;;;;;5035455;28;20480;-57
2021/07/13 06:30:25;;;;;;;4.85;1.20;;;30.90;32.40;;;;;;5054173;28;20075;-58
2021/07/13 06:32:51;;;;;;;7.18;1.45;;;30.80;32.30;;;;;;5053443;28;20024;-57
2021/07/13 06:35:17;;;;;;;4.38;1.80;;;30.80;32.30;;;;;;5051905;28;20036;-58
2021/07/13 06:37:43;;;;;;;3.85;1.33;;;30.70;32.40;;;;;;5052833;28;20029;-63
2021/07/13 06:40:10;;;;;;;3.13;1.52;;;30.60;32.50;;;;;;5053201;28;20108;-57
2021/07/13 06:42:36;;;;;;;3.58;1.17;;;30.60;32.60;;;;;;5053944;28;20029;-58
2021/07/13 06:45:03;;;;;;;6.30;1.50;;;30.60;32.10;;;;;;5052477;28;20071;-57
2021/07/13 06:47:29;;;;;;;2.60;1.40;;;30.50;32.30;;;;;;5036065;28;20021;-57
2021/07/13 06:49:55;;;;;;;4.47;1.83;;;30.50;32.00;;;;;;5034831;28;20025;-57
2021/07/13 06:52:21;;;;;;;6.78;2.00;;;30.40;32.50;;;;;;5035625;28;20086;-57
2021/07/13 06:54:47;;;;;;;4.28;1.52;;;30.40;32.70;;;;;;5052890;28;20017;-57
2021/07/13 06:57:12;;;;;;;4.72;2.40;;;30.40;32.80;;;;;;5044360;28;20021;-57
2021/07/13 06:59:39;;;;;;;7.20;1.75;;;30.30;32.60;;;;;;5033668;28;20037;-57
2021/07/13 07:02:04;;;;;;;2.95;1.33;;;30.30;32.40;;;;;;5048099;28;20972;-58
2021/07/13 07:04:31;;;;;;;3.92;1.13;;;30.30;33.00;;;;;;5050568;28;20068;-58
2021/07/13 07:06:57;;;;;;;5.18;1.60;;;30.30;32.30;;;;;;5025666;28;20029;-58
2021/07/13 07:09:22;;;;;;;6.60;1.55;;;30.30;32.40;;;;;;5052626;28;20031;-57
2021/07/13 07:11:48;;;;;;;6.55;1.45;;;30.30;32.60;;;;;;5051836;28;20031;-58
2021/07/13 07:14:15;;;;;;;4.25;1.05;;;30.20;32.50;;;;;;5052924;28;20039;-61
2021/07/13 07:16:40;;;;;;;4.95;1.83;;;30.20;32.30;;;;;;5052310;28;20025;-57
2021/07/13 07:19:06;;;;;;;11.90;3.72;;;30.20;32.10;;;;;;5051477;28;20029;-58
2021/07/13 07:21:32;;;;;;;7.93;6.22;;;30.20;32.10;;;;;;5048619;28;20087;-59
2021/07/13 07:23:58;;;;;;;8.75;5.03;;;30.20;32.40;;;;;;5049862;28;20039;-59
2021/07/13 07:26:24;;;;;;;5.32;2.22;;;30.20;32.50;;;;;;5051460;28;20025;-59
2021/07/13 07:28:50;;;;;;;5.47;2.35;;;30.20;32.10;;;;;;5034088;28;20067;-60
2021/07/13 07:31:18;;;;;;;5.78;1.52;;;30.20;32.00;;;;;;5052582;28;20045;-60
2021/07/13 07:33:44;;;;;;;4.22;1.48;;;30.20;31.60;;;;;;5019195;28;20033;-59
2021/07/13 07:36:10;;;;;;;9.55;1.63;;;30.20;32.00;;;;;;5052596;28;20030;-58
2021/07/13 07:38:36;;;;;;;4.55;1.40;;;30.20;31.80;;;;;;5034905;28;20454;-58
2021/07/13 07:41:02;;;;;;;3.55;1.55;;;30.20;32.10;;;;;;5035052;28;20021;-58
2021/07/13 07:43:28;;;;;;;4.32;1.13;;;30.20;32.20;;;;;;5052543;28;20041;-58
2021/07/13 07:45:54;;;;;;;8.38;1.65;;;30.20;31.90;;;;;;5034517;28;20104;-61
2021/07/13 07:48:20;;;;;;;8.25;1.50;;;30.30;31.80;;;;;;5050579;28;20033;-58
2021/07/13 07:50:46;;;;;;;7.18;0.90;;;30.30;31.60;;;;;;5051610;28;20079;-58
2021/07/13 07:53:12;;;;;;;3.92;1.40;;;30.30;31.60;;;;;;5034516;28;20033;-58
2021/07/13 07:55:39;;;;;;;7.88;1.40;;;30.30;31.40;;;;;;5044232;28;20388;-58
2021/07/13 07:58:05;;;;;;;5.65;1.27;;;30.40;31.60;;;;;;5033644;28;20031;-60
2021/07/13 08:00:31;;;;;;;2.90;1.20;;;30.30;31.50;;;;;;5032987;28;20132;-60
2021/07/13 08:02:57;;;;;;;6.50;1.38;;;30.40;31.20;;;;;;5050012;28;20025;-59
2021/07/13 08:05:24;;;;;;;1.52;0.95;;;30.40;31.50;;;;;;5032888;28;20035;-58
2021/07/13 08:07:50;;;;;;;1.90;1.10;;;30.40;31.40;;;;;;5051300;28;20037;-59
2021/07/13 08:10:16;;;;;;;1.60;1.02;;;30.40;31.30;;;;;;5033346;28;20068;-59
2021/07/13 08:12:44;;;;;;;4.78;1.30;;;30.50;31.20;;;;;;5044809;28;20021;-59
2021/07/13 08:15:11;;;;;;;3.53;1.08;;;30.40;31.00;;;;;;5048208;28;20090;-59
2021/07/13 08:17:38;;;;;;;5.55;1.20;;;30.50;31.20;;;;;;5043351;28;20043;-60
2021/07/13 08:20:06;;;;;;;9.50;1.88;;;30.60;31.40;;;;;;5032008;28;20033;-59
2021/07/13 08:22:33;;;;;;;5.93;2.08;;;30.60;31.50;;;;;;5034090;28;20025;-60
2021/07/13 08:25:00;;;;;;;5.10;2.75;;;30.60;31.60;;;;;;5051597;28;20044;-62
2021/07/13 08:27:26;;;;;;;3.25;2.22;;;30.60;31.50;;;;;;5051455;28;20020;-60
2021/07/13 08:29:52;;;;;;;6.57;3.45;;;30.60;31.70;;;;;;5046682;28;20488;-59
2021/07/13 08:32:18;;;;;;;16.05;13.00;;;30.70;31.70;;;;;;5051952;28;20078;-59
2021/07/13 08:34:44;;;;;;;7.80;6.28;;;30.70;31.80;;;;;;5051687;28;20035;-58
2021/07/13 08:37:10;;;;;;;7.78;7.13;;;30.80;31.30;;;;;;5032837;28;20033;-58
2021/07/13 08:39:36;;;;;;;6.88;5.22;;;30.80;31.60;;;;;;5016745;28;20017;-59
2021/07/13 08:42:03;;;;;;;9.27;3.10;;;30.90;31.60;;;;;;5050865;28;20031;-59
2021/07/13 08:44:30;;;;;;;5.60;3.10;;;30.90;31.50;;;;;;5050209;28;20098;-60
2021/07/13 08:46:57;;;;;;;5.65;2.17;;;30.90;31.30;;;;;;5050972;28;20079;-60
2021/07/13 08:49:23;;;;;;;8.00;2.00;;;31.00;31.50;;;;;;5051249;28;20029;-61
2021/07/13 08:51:49;;;;;;;6.40;1.40;;;31.00;31.10;;;;;;5050189;28;20040;-59
2021/07/13 08:54:16;;;;;;;4.32;2.03;;;31.00;31.00;;;;;;5050676;28;20368;-60
2021/07/13 08:56:42;;;;;;;6.80;2.25;;;31.10;31.20;;;;;;5049676;28;20061;-60
2021/07/13 08:59:08;;;;;;;14.68;12.98;;;31.10;31.40;;;;;;5037696;28;20087;-59
2021/07/13 09:01:34;;;;;;;9.73;6.88;;;31.10;31.40;;;;;;5012752;28;20030;-59
2021/07/13 09:04:06;;;;;;;7.32;3.05;;;31.20;30.70;;;;;;5030448;28;20038;-59
2021/07/13 09:06:50;;;;;;;12.75;3.92;;;31.20;34.00;;;;;;5013685;28;20053;-59
2021/07/13 09:09:26;;;;;;;12.55;4.25;;;31.10;37.00;;;;;;5041263;28;20040;-59
2021/07/13 09:12:22;;;;;;;14.77;4.40;;;31.00;38.30;;;;;;5050288;28;20399;-62
2021/07/13 09:15:07;;;;;;;15.20;4.38;;;31.00;38.70;;;;;;5051027;28;20033;-60
2021/07/13 09:17:38;;;;;;;19.05;5.55;;;31.00;39.20;;;;;;5032650;28;20045;-60
2021/07/13 09:20:04;;;;;;;17.58;4.50;;;31.00;41.00;;;;;;5050368;28;20440;-60
2021/07/13 09:22:30;;;;;;;14.75;5.28;;;31.00;41.00;;;;;;5050305;28;20025;-59
2021/07/13 09:24:57;;;;;;;13.77;5.18;;;31.00;41.30;;;;;;5050012;28;20361;-58
2021/07/13 09:27:23;;;;;;;16.35;5.32;;;30.90;41.20;;;;;;5050295;28;20499;-61
2021/07/13 09:29:52;;;;;;;11.65;4.78;;;30.90;41.40;;;;;;5050596;28;20118;-59
2021/07/13 09:32:31;;;;;;;19.00;14.90;;;30.90;41.70;;;;;;5050662;28;20027;-59
2021/07/13 09:35:06;;;;;;;24.42;14.63;;;30.90;41.50;;;;;;5049660;28;20041;-59
2021/07/13 09:37:33;;;;;;;11.48;8.27;;;30.90;41.20;;;;;;5012480;28;20037;-59
2021/07/13 09:40:13;;;;;;;15.23;6.63;;;31.00;41.00;;;;;;5030350;28;20029;-58
2021/07/13 09:42:51;;;;;;;13.57;6.05;;;31.00;41.30;;;;;;5030240;28;20530;-59
2021/07/13 09:45:25;;;;;;;11.45;5.45;;;31.00;41.10;;;;;;5012632;28;20045;-59
2021/07/13 09:47:56;;;;;;;13.05;5.03;;;31.00;41.10;;;;;;5012619;28;20132;-58
2021/07/13 09:50:49;;;;;;;14.63;4.95;;;31.10;41.00;;;;;;5012824;28;20416;-58
2021/07/13 09:53:17;;;;;;;11.93;4.45;;;31.10;40.40;;;;;;5025098;28;20049;-58
2021/07/13 09:55:48;;;;;;;22.65;10.43;;;31.20;40.50;;;;;;5030391;28;20034;-58
2021/07/13 09:58:21;;;;;;;14.07;9.30;;;31.30;40.20;;;;;;5030139;28;20041;-59
2021/07/13 10:00:49;;;;;;;12.30;8.55;;;31.30;40.00;;;;;;5015153;28;20049;-61
2021/07/13 10:03:18;;;;;;;15.02;7.55;;;31.30;39.70;;;;;;5049540;28;20124;-63
2021/07/13 10:05:45;;;;;;;9.20;5.78;;;31.40;39.70;;;;;;5032356;28;20041;-63
2021/07/13 10:08:13;;;;;;;10.50;5.22;;;31.40;39.60;;;;;;5013532;28;20117;-63
2021/07/13 10:10:42;;;;;;;11.55;6.60;;;31.50;39.30;;;;;;5029281;28;20477;-63
2021/07/13 10:13:11;;;;;;;16.43;10.67;;;31.60;39.30;;;;;;5046584;28;20027;-62
2021/07/13 10:15:38;;;;;;;12.48;10.05;;;31.50;39.20;;;;;;5049905;28;20049;-61
2021/07/13 10:18:06;;;;;;;11.13;7.25;;;31.60;40.10;;;;;;5049792;28;20040;-62
2021/07/13 10:20:33;;;;;;;11.23;5.50;;;31.70;39.50;;;;;;5050681;28;20108;-63
2021/07/13 10:23:04;;;;;;;5.85;4.28;;;31.70;39.50;;;;;;5032539;28;20021;-62
2021/07/13 10:25:38;;;;;;;6.72;4.50;;;31.80;39.50;;;;;;5032047;28;20040;-62
2021/07/13 10:28:07;;;;;;;7.43;3.63;;;31.80;39.40;;;;;;5049939;28;20021;-64
2021/07/13 10:30:36;;;;;;;8.68;3.60;;;31.90;39.00;;;;;;5035728;28;20099;-63
2021/07/13 10:33:02;;;;;;;8.25;3.28;;;31.90;38.80;;;;;;5012864;28;20030;-62
2021/07/13 10:35:32;;;;;;;7.97;3.53;;;32.00;38.70;;;;;;5012864;28;20476;-62
2021/07/13 10:38:13;;;;;;;6.60;2.80;;;32.00;38.40;;;;;;5012258;28;20026;-62
2021/07/13 10:40:40;;;;;;;6.30;2.78;;;32.00;38.00;;;;;;5044118;28;20064;-63
2021/07/13 10:43:19;;;;;;;6.40;2.80;;;32.10;37.90;;;;;;5049370;28;20041;-60
2021/07/13 10:45:49;;;;;;;12.23;2.70;;;32.20;37.70;;;;;;5049637;28;20037;-63
2021/07/13 10:48:22;;;;;;;9.73;2.70;;;32.20;37.60;;;;;;5048022;28;20365;-62
2021/07/13 10:50:59;;;;;;;10.23;3.20;;;32.20;37.40;;;;;;5052328;28;20078;-63
2021/07/13 10:53:42;;;;;;;7.57;2.47;;;32.30;36.90;;;;;;5032408;28;20067;-61
2021/07/13 10:56:14;;;;;;;6.03;2.35;;;32.30;36.20;;;;;;5033590;28;20025;-61
2021/07/13 10:58:45;;;;;;;5.20;2.78;;;32.40;36.10;;;;;;5033203;28;20104;-63
2021/07/13 11:01:16;;;;;;;4.15;2.35;;;32.40;35.10;;;;;;5033421;28;20029;-63
2021/07/13 11:03:43;;;;;;;7.43;2.42;;;32.40;34.90;;;;;;5033243;28;20045;-63
2021/07/13 11:06:11;;;;;;;6.60;2.28;;;32.50;35.20;;;;;;5033126;28;20049;-62
2021/07/13 11:08:50;;;;;;;8.00;2.40;;;32.50;35.30;;;;;;5015709;28;20064;-62
2021/07/13 11:11:37;;;;;;;6.63;2.22;;;32.50;35.20;;;;;;5045299;28;20476;-62
2021/07/13 11:14:06;;;;;;;5.50;2.50;;;32.60;35.40;;;;;;5051338;28;20464;-62
2021/07/13 11:16:40;;;;;;;6.40;2.33;;;32.60;35.10;;;;;;5051845;28;20040;-63
2021/07/13 11:19:17;;;;;;;10.88;3.10;;;32.70;35.20;;;;;;5051647;28;20093;-63
2021/07/13 11:21:46;;;;;;;7.68;2.55;;;32.70;35.40;;;;;;5051941;28;20044;-63
2021/07/13 11:24:16;;;;;;;5.63;2.53;;;32.70;35.70;;;;;;5050170;28;20036;-62
2021/07/13 11:26:45;;;;;;;8.32;3.03;;;32.70;36.10;;;;;;5052516;28;20280;-62
2021/07/13 11:29:21;;;;;;;9.27;2.80;;;32.70;36.50;;;;;;5052609;28;20072;-63
2021/07/13 11:31:57;;;;;;;9.52;3.70;;;32.70;36.70;;;;;;5051908;28;20033;-62
2021/07/13 11:34:25;;;;;;;17.70;6.32;;;32.80;37.00;;;;;;5034505;28;20033;-62
2021/07/13 11:36:53;;;;;;;39.47;13.60;;;32.80;37.00;;;;;;5034901;28;20032;-62
2021/07/13 11:39:29;;;;;;;28.67;12.98;;;32.80;37.10;;;;;;5034315;28;20025;-62
2021/07/13 11:42:00;;;;;;;20.75;6.78;;;32.80;37.10;;;;;;5051174;28;20036;-62
2021/07/13 11:44:26;;;;;;;19.20;8.45;;;32.80;37.10;;;;;;5053048;28;20483;-61
2021/07/13 11:46:54;;;;;;;12.00;4.70;;;32.90;37.10;;;;;;5034398;28;20025;-61
2021/07/13 11:49:23;;;;;;;9.70;3.83;;;32.90;37.90;;;;;;5052606;28;20585;-62
2021/07/13 11:52:00;;;;;;;9.20;4.47;;;32.90;38.80;;;;;;5051351;28;20056;-62
2021/07/13 11:54:33;;;;;;;11.50;3.58;;;32.80;39.20;;;;;;5033895;28;20032;-61
2021/07/13 11:57:04;;;;;;;10.63;3.35;;;32.80;39.60;;;;;;5052694;28;20112;-62
2021/07/13 11:59:31;;;;;;;6.30;2.92;;;32.70;38.90;;;;;;5034763;28;20028;-61
2021/07/13 12:02:05;;;;;;;6.47;2.80;;;32.70;38.30;;;;;;5033960;28;20032;-63
2021/07/13 12:04:39;;;;;;;9.77;2.92;;;32.70;38.00;;;;;;5052335;28;20041;-63
2021/07/13 12:07:05;;;;;;;7.57;3.00;;;32.60;37.70;;;;;;5017631;28;20064;-63
2021/07/13 12:09:34;;;;;;;8.73;2.60;;;32.60;38.50;;;;;;5051930;28;20555;-66
2021/07/13 12:12:06;;;;;;;9.43;3.33;;;32.60;39.10;;;;;;5051951;28;20017;-63
2021/07/13 12:14:33;;;;;;;6.32;2.60;;;32.50;38.70;;;;;;5052053;28;20029;-62
2021/07/13 12:16:59;;;;;;;8.18;2.97;;;32.40;39.20;;;;;;5034268;28;20025;-62
2021/07/13 12:19:28;;;;;;;13.23;3.28;;;32.40;39.50;;;;;;5046650;28;20104;-62
2021/07/13 12:22:03;;;;;;;8.38;2.85;;;32.30;39.30;;;;;;5023223;28;20494;-61
2021/07/13 12:24:41;;;;;;;7.75;3.00;;;32.20;38.90;;;;;;5047786;28;20044;-62
2021/07/13 12:27:12;;;;;;;6.90;2.65;;;32.20;38.70;;;;;;5029577;28;20033;-62
2021/07/13 12:29:53;;;;;;;7.55;3.20;;;32.10;38.30;;;;;;5030461;28;20041;-61
2021/07/13 12:32:33;;;;;;;9.52;3.03;;;32.10;37.90;;;;;;5013681;28;20426;-61
2021/07/13 12:35:05;;;;;;;6.47;3.13;;;32.10;37.80;;;;;;5043088;28;20056;-61
2021/07/13 12:37:32;;;;;;;6.53;2.45;;;32.10;37.90;;;;;;5026211;28;20099;-62
2021/07/13 12:40:01;;;;;;;6.78;2.22;;;32.10;37.30;;;;;;5031600;28;20492;-62
2021/07/13 12:42:35;;;;;;;8.47;2.57;;;32.10;37.30;;;;;;5013915;28;20519;-63
2021/07/13 12:45:09;;;;;;;8.00;2.90;;;32.10;37.50;;;;;;5013907;28;20436;-62
2021/07/13 12:47:38;;;;;;;6.53;3.00;;;32.10;38.60;;;;;;5026508;28;20543;-63